KHII/HII METAR and TAF weather

Enter ICAO airport designator
Station Type Date Time Source
KHII METAR 2021/10/22 18:55 UTC NOAA

KHII 221855Z AUTO 00000KT 10SM CLR 25/00 A2994 RMK AO2


Station Type Date Time Source
KHII Decoded METAR 2021/10/22 18:55 UTC NOAA

Station name not available
Oct 22, 2021 - 02:55 PM EDT / 2021.10.22 1855 UTC
Wind: Calm:0
Visibility: 10 mile(s):0
Sky conditions: clear
Temperature: 77 F (25 C)
Dew Point: 32 F (0 C)
Relative Humidity: 19%
Pressure (altimeter): 29.94 in. Hg (1013 hPa)
ob: KHII 221855Z AUTO 00000KT 10SM CLR 25/00 A2994 RMK AO2
cycle: 19

Station Type Date Time Source
KHII TAF UTC NOAA

Error!

Example: see airport list